Time,TemperatureF,DewpointF,PressureIn,WindDirection,WindDirectionDegrees,WindSpeedMPH,WindSpeedGustMPH,Humidity,HourlyPrecipIn,Conditions,Clouds,dailyrainin,SolarRadiationWatts/m^2,SoftwareType,DateUTC
2013-08-24 00:02:00,53.0,48.0,30.45,ESE,107,22.0,27.0,84,0.00,,,0.66,0.000000,,2013-08-24 06:02:00,
2013-08-24 00:42:00,52.0,49.0,30.47,ESE,116,27.0,32.0,90,0.00,,,0.66,0.000000,,2013-08-24 06:42:00,
2013-08-24 00:52:00,52.0,49.0,30.47,ESE,116,27.0,32.0,90,0.00,,,0.66,0.000000,,2013-08-24 06:52:00,
2013-08-24 01:02:00,52.0,49.0,30.47,ESE,116,27.0,32.0,90,0.00,,,0.66,0.000000,,2013-08-24 07:02:00,
2013-08-24 01:11:00,52.0,49.0,30.47,ESE,116,27.0,32.0,90,0.00,,,0.66,0.000000,,2013-08-24 07:11:00,
2013-08-24 01:12:00,52.0,44.0,30.48,ESE,113,13.0,36.0,74,0.00,,,0.66,0.000000,,2013-08-24 07:12:00,
2013-08-24 01:43:00,52.0,44.0,30.48,ESE,113,13.0,36.0,74,0.00,,,0.66,0.000000,,2013-08-24 07:43:00,
2013-08-24 01:53:00,52.0,44.0,30.48,ESE,113,13.0,36.0,74,0.00,,,0.66,0.000000,,2013-08-24 07:53:00,
2013-08-24 02:02:00,52.0,44.0,30.48,ESE,113,13.0,36.0,74,0.00,,,0.66,0.000000,,2013-08-24 08:02:00,
2013-08-24 02:42:00,52.0,48.0,30.47,ESE,110,16.0,20.0,85,0.00,,,0.66,0.000000,,2013-08-24 08:42:00,
2013-08-24 02:52:00,52.0,48.0,30.47,ESE,110,16.0,20.0,85,0.00,,,0.66,0.000000,,2013-08-24 08:52:00,
2013-08-24 03:01:00,52.0,48.0,30.47,ESE,110,16.0,20.0,85,0.00,,,0.66,0.000000,,2013-08-24 09:01:00,
2013-08-24 03:11:00,52.0,48.0,30.47,ESE,110,16.0,20.0,85,0.00,,,0.66,0.000000,,2013-08-24 09:11:00,
2013-08-24 03:12:00,51.0,44.0,30.48,ESE,102,14.0,18.0,76,0.00,,,0.66,0.000000,,2013-08-24 09:12:00,
2013-08-24 03:44:00,51.0,44.0,30.48,ESE,102,14.0,18.0,76,0.00,,,0.66,0.000000,,2013-08-24 09:44:00,
2013-08-24 03:53:00,51.0,44.0,30.48,ESE,102,14.0,18.0,76,0.00,,,0.66,0.000000,,2013-08-24 09:53:00,
2013-08-24 04:03:00,51.0,44.0,30.48,ESE,102,14.0,18.0,76,0.00,,,0.66,0.000000,,2013-08-24 10:03:00,
2013-08-24 04:42:00,52.0,46.0,30.50,ESE,110,16.0,19.0,79,0.00,,,0.66,0.000000,,2013-08-24 10:42:00,
2013-08-24 04:53:00,52.0,46.0,30.50,ESE,110,16.0,19.0,79,0.00,,,0.66,0.000000,,2013-08-24 10:53:00,
2013-08-24 05:02:00,52.0,46.0,30.50,ESE,110,16.0,19.0,79,0.00,,,0.66,0.000000,,2013-08-24 11:02:00,
2013-08-24 05:11:00,52.0,46.0,30.50,ESE,110,16.0,19.0,79,0.00,,,0.66,0.000000,,2013-08-24 11:11:00,
2013-08-24 05:42:00,53.0,45.0,30.49,ESE,119,14.0,21.0,75,0.00,,,0.66,0.000000,,2013-08-24 11:42:00,
2013-08-24 05:52:00,53.0,45.0,30.49,ESE,119,14.0,21.0,75,0.00,,,0.66,0.000000,,2013-08-24 11:52:00,
2013-08-24 06:02:00,53.0,45.0,30.49,ESE,119,14.0,21.0,75,0.00,,,0.66,0.000000,,2013-08-24 12:02:00,
2013-08-24 06:11:00,53.0,45.0,30.49,ESE,119,14.0,21.0,75,0.00,,,0.66,0.000000,,2013-08-24 12:11:00,
2013-08-24 06:42:00,53.0,45.0,30.50,ESE,116,12.0,18.0,73,0.00,,,0.66,0.000000,,2013-08-24 12:42:00,
2013-08-24 06:52:00,53.0,45.0,30.50,ESE,116,12.0,18.0,73,0.00,,,0.66,0.000000,,2013-08-24 12:52:00,
2013-08-24 07:02:00,53.0,45.0,30.50,ESE,116,12.0,18.0,73,0.00,,,0.66,0.000000,,2013-08-24 13:02:00,
2013-08-24 07:11:00,53.0,45.0,30.50,ESE,116,12.0,18.0,73,0.00,,,0.66,0.000000,,2013-08-24 13:11:00,
2013-08-24 07:42:00,53.0,42.0,30.52,ESE,115,9.0,16.0,67,0.00,,,0.66,4.000000,,2013-08-24 13:42:00,
2013-08-24 07:52:00,53.0,42.0,30.52,ESE,115,9.0,16.0,67,0.00,,,0.66,4.000000,,2013-08-24 13:52:00,
2013-08-24 08:02:00,53.0,42.0,30.52,ESE,115,9.0,16.0,67,0.00,,,0.66,4.000000,,2013-08-24 14:02:00,
2013-08-24 08:11:00,53.0,42.0,30.52,ESE,115,9.0,16.0,67,0.00,,,0.66,4.000000,,2013-08-24 14:11:00,
2013-08-24 08:42:00,55.0,43.0,30.53,ESE,110,6.0,11.0,63,0.00,,,0.66,63.000000,,2013-08-24 14:42:00,
2013-08-24 08:52:00,55.0,43.0,30.53,ESE,110,6.0,11.0,63,0.00,,,0.66,63.000000,,2013-08-24 14:52:00,
2013-08-24 09:01:00,55.0,43.0,30.53,ESE,110,6.0,11.0,63,0.00,,,0.66,63.000000,,2013-08-24 15:01:00,
2013-08-24 09:11:00,55.0,43.0,30.53,ESE,110,6.0,11.0,63,0.00,,,0.66,63.000000,,2013-08-24 15:11:00,
2013-08-24 09:12:00,64.0,45.0,30.45,South,183,1.0,8.0,50,0.00,,,0.66,346.000000,,2013-08-24 15:12:00,
2013-08-24 09:45:00,64.0,45.0,30.45,South,183,1.0,8.0,50,0.00,,,0.66,346.000000,,2013-08-24 15:45:00,
2013-08-24 09:54:00,64.0,45.0,30.45,South,183,1.0,8.0,50,0.00,,,0.66,346.000000,,2013-08-24 15:54:00,
2013-08-24 10:04:00,64.0,45.0,30.45,South,183,1.0,8.0,50,0.00,,,0.66,346.000000,,2013-08-24 16:04:00,
2013-08-24 10:12:00,65.0,44.0,30.22,West,271,3.0,6.0,47,0.00,,,0.66,544.000000,,2013-08-24 16:12:00,
2013-08-24 10:42:00,65.0,44.0,30.22,West,271,3.0,6.0,47,0.00,,,0.66,544.000000,,2013-08-24 16:42:00,
2013-08-24 10:53:00,65.0,44.0,30.22,West,271,3.0,6.0,47,0.00,,,0.66,544.000000,,2013-08-24 16:53:00,
2013-08-24 11:02:00,65.0,44.0,30.22,West,271,3.0,6.0,47,0.00,,,0.66,544.000000,,2013-08-24 17:02:00,
2013-08-24 11:12:00,69.0,48.0,29.95,NW,314,4.0,8.0,48,0.00,,,-99.99,759.000000,,2013-08-24 17:12:00,
2013-08-24 11:52:00,69.0,48.0,29.95,NW,314,4.0,8.0,48,0.00,,,-99.99,759.000000,,2013-08-24 17:52:00,
2013-08-24 12:02:00,69.0,48.0,29.95,NW,314,4.0,8.0,48,0.00,,,-99.99,759.000000,,2013-08-24 18:02:00,
2013-08-24 12:42:00,72.0,48.0,29.82,WNW,302,5.0,11.0,42,0.00,,,0.66,1081.000000,,2013-08-24 18:42:00,
2013-08-24 12:53:00,72.0,48.0,29.82,WNW,302,5.0,11.0,42,0.00,,,0.66,1081.000000,,2013-08-24 18:53:00,
2013-08-24 13:01:00,72.0,48.0,29.82,WNW,302,5.0,11.0,42,0.00,,,0.66,1081.000000,,2013-08-24 19:01:00,
2013-08-24 13:42:00,67.0,47.0,29.84,WNW,293,5.0,11.0,48,0.00,,,0.65,608.000000,,2013-08-24 19:42:00,
2013-08-24 13:52:00,67.0,47.0,29.84,WNW,293,5.0,11.0,48,0.00,,,0.65,608.000000,,2013-08-24 19:52:00,
2013-08-24 14:02:00,67.0,47.0,29.84,WNW,293,5.0,11.0,48,0.00,,,0.65,608.000000,,2013-08-24 20:02:00,
2013-08-24 14:11:00,67.0,47.0,29.84,WNW,293,5.0,11.0,48,0.00,,,0.65,608.000000,,2013-08-24 20:11:00,
2013-08-24 14:42:00,68.0,48.0,30.00,SSE,152,8.0,13.0,48,0.00,,,0.65,447.000000,,2013-08-24 20:42:00,
2013-08-24 14:52:00,68.0,48.0,30.00,SSE,152,8.0,13.0,48,0.00,,,0.65,447.000000,,2013-08-24 20:52:00,
2013-08-24 15:02:00,68.0,48.0,30.00,SSE,152,8.0,13.0,48,0.00,,,0.65,447.000000,,2013-08-24 21:02:00,
2013-08-24 15:11:00,68.0,48.0,30.00,SSE,152,8.0,13.0,48,0.00,,,0.65,447.000000,,2013-08-24 21:11:00,
2013-08-24 15:12:00,63.0,41.0,30.10,East,98,6.0,17.0,44,0.00,,,0.65,411.000000,,2013-08-24 21:12:00,
2013-08-24 15:43:00,63.0,41.0,30.10,East,98,6.0,17.0,44,0.00,,,0.65,411.000000,,2013-08-24 21:43:00,
2013-08-24 15:55:00,63.0,41.0,30.10,East,98,6.0,17.0,44,0.00,,,0.65,411.000000,,2013-08-24 21:55:00,
2013-08-24 16:04:00,63.0,41.0,30.10,East,98,6.0,17.0,44,0.00,,,0.65,411.000000,,2013-08-24 22:04:00,
2013-08-24 16:12:00,73.0,43.0,29.83,SSE,161,3.0,7.0,34,0.00,,,0.65,622.000000,,2013-08-24 22:12:00,
2013-08-24 16:43:00,73.0,43.0,29.83,SSE,161,3.0,7.0,34,0.00,,,0.65,622.000000,,2013-08-24 22:43:00,
2013-08-24 16:53:00,73.0,43.0,29.83,SSE,161,3.0,7.0,34,0.00,,,0.65,622.000000,,2013-08-24 22:53:00,
2013-08-24 17:03:00,73.0,43.0,29.83,SSE,161,3.0,7.0,34,0.00,,,0.65,622.000000,,2013-08-24 23:03:00,
2013-08-24 17:43:00,75.0,40.0,29.75,NE,44,4.0,11.0,28,0.00,,,0.33,774.000000,,2013-08-24 23:43:00,
2013-08-24 17:53:00,75.0,40.0,29.75,NE,44,4.0,11.0,28,0.00,,,0.33,774.000000,,2013-08-24 23:53:00,
2013-08-24 18:01:00,75.0,40.0,29.75,NE,44,4.0,11.0,28,0.00,,,0.33,774.000000,,2013-08-25 00:01:00,
2013-08-24 18:42:00,67.0,39.0,29.90,SW,229,1.0,10.0,36,0.00,,,0.03,344.000000,,2013-08-25 00:42:00,
2013-08-24 18:52:00,67.0,39.0,29.90,SW,229,1.0,10.0,36,0.00,,,0.03,344.000000,,2013-08-25 00:52:00,
2013-08-24 19:01:00,67.0,39.0,29.90,SW,229,1.0,10.0,36,0.00,,,0.03,344.000000,,2013-08-25 01:01:00,
2013-08-24 19:11:00,67.0,39.0,29.90,SW,229,1.0,10.0,36,0.00,,,0.03,344.000000,,2013-08-25 01:11:00,
2013-08-24 19:42:00,63.0,40.0,30.15,WNW,291,4.0,12.0,43,0.00,,,0.02,78.000000,,2013-08-25 01:42:00,
2013-08-24 19:52:00,63.0,40.0,30.15,WNW,291,4.0,12.0,43,0.00,,,0.02,78.000000,,2013-08-25 01:52:00,
2013-08-24 20:02:00,63.0,40.0,30.15,WNW,291,4.0,12.0,43,0.00,,,0.02,78.000000,,2013-08-25 02:02:00,
2013-08-24 20:11:00,63.0,40.0,30.15,WNW,291,4.0,12.0,43,0.00,,,0.02,78.000000,,2013-08-25 02:11:00,
2013-08-24 20:42:00,59.0,38.0,30.33,West,265,2.0,8.0,45,0.00,,,0.01,7.000000,,2013-08-25 02:42:00,
2013-08-24 20:52:00,59.0,38.0,30.33,West,265,2.0,8.0,45,0.00,,,0.01,7.000000,,2013-08-25 02:52:00,
2013-08-24 21:02:00,59.0,38.0,30.33,West,265,2.0,8.0,45,0.00,,,0.01,7.000000,,2013-08-25 03:02:00,
2013-08-24 21:11:00,59.0,38.0,30.33,West,265,2.0,8.0,45,0.00,,,0.01,7.000000,,2013-08-25 03:11:00,
2013-08-24 21:12:00,58.0,38.0,30.51,NNE,29,3.0,10.0,48,0.00,,,0.00,0.000000,,2013-08-25 03:12:00,
2013-08-24 21:44:00,58.0,38.0,30.51,NNE,29,3.0,10.0,48,0.00,,,0.00,0.000000,,2013-08-25 03:44:00,
2013-08-24 21:54:00,58.0,38.0,30.51,NNE,29,3.0,10.0,48,0.00,,,0.00,0.000000,,2013-08-25 03:54:00,
2013-08-24 22:02:00,-999.0,-99.9,30.51,NNE,29,3.0,10.0,-999,-99.99,,,-99.99,0.000000,,2013-08-25 04:02:00,
2013-08-24 22:12:00,59.0,39.0,30.56,NW,306,0.0,7.0,47,0.00,,,0.00,0.000000,,2013-08-25 04:12:00,
2013-08-24 22:44:00,59.0,39.0,30.56,NW,306,0.0,7.0,47,0.00,,,0.00,0.000000,,2013-08-25 04:44:00,
2013-08-24 22:54:00,59.0,39.0,30.56,NW,306,0.0,7.0,47,0.00,,,0.00,0.000000,,2013-08-25 04:54:00,
2013-08-24 23:03:00,59.0,39.0,30.56,NW,306,0.0,7.0,47,0.00,,,0.00,0.000000,,2013-08-25 05:03:00,
2013-08-24 23:12:00,56.0,38.0,30.56,NW,313,0.0,4.0,50,0.00,,,0.00,0.000000,,2013-08-25 05:12:00,
2013-08-24 23:42:00,56.0,38.0,30.56,NW,313,0.0,4.0,50,0.00,,,0.00,0.000000,,2013-08-25 05:42:00,
2013-08-24 23:52:00,56.0,38.0,30.56,NW,313,0.0,4.0,50,0.00,,,0.00,0.000000,,2013-08-25 05:52:00,